Seaspan Chiwan — VRBH3 — position and weather

sailwx.info

Track history (hours):
 
Tides and Currents Weather Stations Pressure Air Temp Water Temp Dewpoint Dewpoint Depression Visibility Wind Speed Wind Dir Waves Ship Positions

Seaspan Chiwan

Last reported at 2014-Jul-20 23:33 UTC. Time now 2014-Jul-24 16:59 UTC.
Position N 20°06' W 106°55'.

Length 260 m; draft 10.4 m.

Type: Cargo ship. MMSI: 477014500.

Date/timePositionNaut miles runAvg speedWind from/ knotsBaromVisibWave heightAir tempDewpointWater temp
2014-Jul-20 23:33N 20°06' W 106°55'  
2014-Jul-18 16:10N 32°15' W 117°38'1015.8
2014-Jul-18 15:33N 32°24' W 117°40'1615.7
2014-Jul-18 14:34N 32°39' W 117°48'1615.7
2014-Jul-18 13:34N 32°53' W 117°55'1615.6
2014-Jul-18 12:34N 33°08' W 118°01'1615.7
2014-Jul-18 11:33N 33°23' W 118°08'1413.8
2014-Jul-18 10:33N 33°36' W 118°14'8 3.4
2014-Jul-18 08:11N 33°44' W 118°15'0 0.0
2014-Jul-18 06:26N 33°44' W 118°15'0 0.0
2014-Jul-18 05:23N 33°44' W 118°15'0 0.0
2014-Jul-18 04:33N 33°44' W 118°15'0 0.0
2014-Jul-18 03:33N 33°44' W 118°15'0 0.0
2014-Jul-18 02:33N 33°44' W 118°15'0 0.0
2014-Jul-18 01:33N 33°44' W 118°15'8111.6
2014-Jul-17 18:33N 34°09' W 119°48'1818.1
2014-Jul-17 17:33N 34°14' W 120°09'6716.8
2014-Jul-17 13:33N 34°45' W 121°21'1818.0
2014-Jul-17 12:33N 35°00' W 121°34'1818.0
2014-Jul-17 11:33N 35°15' W 121°45'1917.9
2014-Jul-17 10:29N 35°32' W 121°57'1717.8
2014-Jul-17 09:33N 35°46' W 122°08'1817.9
2014-Jul-17 08:33N 36°01' W 122°19'1817.7
2014-Jul-17 07:33N 36°16' W 122°31'1817.8
2014-Jul-17 06:33N 36°33' W 122°38'1817.4
2014-Jul-17 05:33N 36°49' W 122°46'1717.5
2014-Jul-17 04:33N 37°05' W 122°55'1817.8
2014-Jul-17 03:33N 37°22' W 123°02'1514.8
2014-Jul-17 02:33N 37°37' W 122°59'1717.0
2014-Jul-17 01:33N 37°45' W 122°41'1414.1
2014-Jul-17 00:34N 37°49' W 122°24'3 3.4
2014-Jul-16 23:33N 37°49' W 122°19'0 0.0
2014-Jul-16 22:30N 37°49' W 122°19'0 0.0
2014-Jul-16 21:33N 37°49' W 122°19'0 0.0
2014-Jul-16 20:33N 37°49' W 122°19'0 0.0
2014-Jul-16 19:33N 37°49' W 122°19'0 0.0
2014-Jul-16 18:33N 37°49' W 122°19'0 0.0
2014-Jul-16 17:30N 37°49' W 122°19'0 0.0
2014-Jul-16 16:30N 37°49' W 122°19'0 0.0
2014-Jul-16 15:33N 37°49' W 122°19'0 0.0
2014-Jul-16 14:33N 37°49' W 122°19'0 0.0
2014-Jul-16 13:33N 37°49' W 122°19'0 0.0
2014-Jul-16 12:33N 37°49' W 122°19'0 0.0
2014-Jul-16 11:33N 37°49' W 122°19'0 0.0
2014-Jul-16 10:33N 37°49' W 122°19'0 0.0
2014-Jul-16 09:33N 37°49' W 122°19'0 0.0
2014-Jul-16 08:33N 37°49' W 122°19'0 0.0
2014-Jul-16 07:33N 37°49' W 122°19'0 0.0
2014-Jul-16 06:34N 37°49' W 122°19'0 0.0
2014-Jul-16 05:33N 37°49' W 122°19'0 0.0
2014-Jul-16 04:33N 37°49' W 122°19'0 0.0
2014-Jul-16 03:33N 37°49' W 122°19'0 0.0
2014-Jul-16 02:33N 37°49' W 122°19'0 0.0
2014-Jul-16 01:33N 37°49' W 122°19'0 0.0
2014-Jul-16 00:33N 37°49' W 122°19'0 0.0
2014-Jul-15 23:33N 37°49' W 122°19'0 0.0
2014-Jul-15 22:33N 37°49' W 122°19'0 0.0
2014-Jul-15 21:33N 37°49' W 122°19'9 9.5
2014-Jul-15 20:34N 37°48' W 122°31'1010.3
2014-Jul-15 19:34N 37°46' W 122°44'1615.5
2014-Jul-15 18:34N 37°53' W 123°01'1515.3
2014-Jul-15 17:34N 38°03' W 123°17'1515.4
2014-Jul-15 16:33N 38°11' W 123°33'1615.7
2014-Jul-15 15:33N 38°21' W 123°48'1715.9
2014-Jul-15 14:29N 38°33' W 124°04'1515.6
2014-Jul-15 13:33N 38°43' W 124°18'1815.6
2014-Jul-15 12:24N 38°60' W 124°26'1616.1
2014-Jul-15 11:26N 39°14' W 124°33'1816.1
2014-Jul-15 10:19N 39°31' W 124°40'3016.1
2014-Jul-15 08:27N 39°60' W 124°53'33816.1
2014-Jul-14 11:26N 45°37' W 124°20'1516.5
2014-Jul-14 10:33N 45°51' W 124°16'1616.4
2014-Jul-14 09:33N 46°07' W 124°13'1211.8
2014-Jul-14 08:33N 46°15' W 124°00'9 9.1
2014-Jul-14 07:33N 46°12' W 123°48'1211.8
2014-Jul-14 06:33N 46°16' W 123°32'1111.3
2014-Jul-14 05:33N 46°09' W 123°19'1313.0
2014-Jul-14 04:33N 46°08' W 123°00'1111.0
2014-Jul-14 03:32N 45°59' W 122°50'1211.9
2014-Jul-14 02:32N 45°47' W 122°47'9 8.6
2014-Jul-14 01:29N 45°38' W 122°45'0 0.0
2014-Jul-14 00:29N 45°38' W 122°45'0 0.0
2014-Jul-13 23:26N 45°38' W 122°45'0 0.0
2014-Jul-13 22:20N 45°38' W 122°45'0 0.0
2014-Jul-13 21:23N 45°38' W 122°45'0 0.0
2014-Jul-13 20:08N 45°38' W 122°45'0 0.0
2014-Jul-13 19:32N 45°38' W 122°45'0 0.0
2014-Jul-13 18:29N 45°38' W 122°45'0 0.0
2014-Jul-13 17:32N 45°38' W 122°45'0 0.0
2014-Jul-13 16:26N 45°38' W 122°45'0 0.0
2014-Jul-13 15:29N 45°38' W 122°45'0 0.0
2014-Jul-13 14:17N 45°38' W 122°45'0 0.2
2014-Jul-13 12:23N 45°39' W 122°45'7 8.1
2014-Jul-13 11:33N 45°45' W 122°46'1111.4
2014-Jul-13 10:33N 45°57' W 122°48'1110.5
2014-Jul-13 09:33N 46°06' W 122°56'1111.2
2014-Jul-13 08:33N 46°11' W 123°10'1010.4
2014-Jul-13 07:33N 46°10' W 123°25'9 9.1
2014-Jul-13 06:33N 46°15' W 123°36'1212.5
2014-Jul-13 05:33N 46°11' W 123°53'1313.5
2014-Jul-13 04:33N 46°12' W 124°12'10 9.5
2014-Jul-13 03:33N 46°19' W 124°22'8 8.4
2014-Jul-13 02:33N 46°26' W 124°28'1212.3
2014-Jul-13 01:33N 46°37' W 124°37'1313.3
2014-Jul-13 00:33N 46°49' W 124°45'1413.6
2014-Jul-12 23:33N 47°00' W 124°56'1313.3
2014-Jul-12 22:33N 47°12' W 125°04'1413.9
2014-Jul-12 21:33N 47°26' W 125°09'1413.6
2014-Jul-12 20:33N 47°39' W 125°13'1313.3
2014-Jul-12 19:33N 47°52' W 125°17'1313.0
2014-Jul-12 18:33N 48°05' W 125°13'1212.4
2014-Jul-12 17:33N 48°17' W 125°11'1312.9
2014-Jul-12 16:33N 48°29' W 125°04'1313.0
2014-Jul-12 15:33N 48°31' W 124°44'1515.5
2014-Jul-12 14:33N 48°25' W 124°23'1615.7
2014-Jul-12 13:33N 48°19' W 124°01'1515.1
2014-Jul-12 12:33N 48°16' W 123°39'1212.3
2014-Jul-12 11:33N 48°23' W 123°24'1212.2
2014-Jul-12 10:33N 48°33' W 123°13'1414.1
2014-Jul-12 09:33N 48°46' W 123°05'1413.9
2014-Jul-12 08:33N 48°58' W 123°15'1010.0
2014-Jul-12 07:33N 49°08' W 123°14'1211.7
2014-Jul-12 06:33N 49°10' W 122°56'1 1.3
2014-Jul-12 05:33N 49°11' W 122°55'0 0.0
2014-Jul-12 04:33N 49°11' W 122°55'0 0.0
2014-Jul-12 03:33N 49°11' W 122°55'0 0.0
2014-Jul-12 02:33N 49°11' W 122°55'0 0.0
2014-Jul-12 01:33N 49°11' W 122°55'0 0.0
2014-Jul-12 00:33N 49°11' W 122°55'0 0.0
2014-Jul-11 23:33N 49°11' W 122°55'0 0.0
2014-Jul-11 22:33N 49°11' W 122°55'0 0.0
2014-Jul-11 21:33N 49°11' W 122°55'0 0.0
2014-Jul-11 20:33N 49°11' W 122°55'0 0.0
2014-Jul-11 19:33N 49°11' W 122°55'0 0.0
2014-Jul-11 18:33N 49°11' W 122°55'0 0.0
2014-Jul-11 17:33N 49°11' W 122°55'0 0.0
2014-Jul-11 16:33N 49°11' W 122°55'0 0.0
2014-Jul-11 15:33N 49°11' W 122°55'0 0.0
2014-Jul-11 14:33N 49°11' W 122°55'0 0.0
2014-Jul-11 13:33N 49°11' W 122°55'0 0.0
2014-Jul-11 12:33N 49°11' W 122°55'0 0.0
2014-Jul-11 11:33N 49°11' W 122°55'0 0.0
2014-Jul-11 10:33N 49°11' W 122°55'0 0.0
2014-Jul-11 09:33N 49°11' W 122°55'0 0.0
2014-Jul-11 08:33N 49°11' W 122°55'0 0.0
2014-Jul-11 07:33N 49°11' W 122°55'0 0.0
2014-Jul-11 06:33N 49°11' W 122°55'0 0.0
2014-Jul-11 05:33N 49°11' W 122°55'0 0.0
2014-Jul-11 04:33N 49°11' W 122°55'0 0.0
2014-Jul-11 03:33N 49°11' W 122°55'0 0.0
2014-Jul-11 02:33N 49°11' W 122°55'0 0.0
2014-Jul-11 01:33N 49°11' W 122°55'0 0.0
2014-Jul-11 00:33N 49°11' W 122°55'2 2.3
2014-Jul-10 23:33N 49°09' W 122°57'  
Track history (hours):
 
Tides and Currents Weather Stations Pressure Air Temp Water Temp Dewpoint Dewpoint Depression Visibility Wind Speed Wind Dir Waves Ship Positions

Seaspan Chiwan

Last reported at 2014-Jul-20 23:33 UTC. Time now 2014-Jul-24 16:59 UTC.
Position N 20°06' W 106°55'.

Length 260 m; draft 10.4 m.

Type: Cargo ship. MMSI: 477014500.

Date/timePositionNaut miles runAvg speedWind from/ knotsBaromVisibWave heightAir tempDewpointWater temp
2014-Jul-20 23:33N 20°06' W 106°55'  
2014-Jul-18 16:10N 32°15' W 117°38'1015.8
2014-Jul-18 15:33N 32°24' W 117°40'1615.7
2014-Jul-18 14:34N 32°39' W 117°48'1615.7
2014-Jul-18 13:34N 32°53' W 117°55'1615.6
2014-Jul-18 12:34N 33°08' W 118°01'1615.7
2014-Jul-18 11:33N 33°23' W 118°08'1413.8
2014-Jul-18 10:33N 33°36' W 118°14'8 3.4
2014-Jul-18 08:11N 33°44' W 118°15'0 0.0
2014-Jul-18 06:26N 33°44' W 118°15'0 0.0
2014-Jul-18 05:23N 33°44' W 118°15'0 0.0
2014-Jul-18 04:33N 33°44' W 118°15'0 0.0
2014-Jul-18 03:33N 33°44' W 118°15'0 0.0
2014-Jul-18 02:33N 33°44' W 118°15'0 0.0
2014-Jul-18 01:33N 33°44' W 118°15'8111.6
2014-Jul-17 18:33N 34°09' W 119°48'1818.1
2014-Jul-17 17:33N 34°14' W 120°09'6716.8
2014-Jul-17 13:33N 34°45' W 121°21'1818.0
2014-Jul-17 12:33N 35°00' W 121°34'1818.0
2014-Jul-17 11:33N 35°15' W 121°45'1917.9
2014-Jul-17 10:29N 35°32' W 121°57'1717.8
2014-Jul-17 09:33N 35°46' W 122°08'1817.9
2014-Jul-17 08:33N 36°01' W 122°19'1817.7
2014-Jul-17 07:33N 36°16' W 122°31'1817.8
2014-Jul-17 06:33N 36°33' W 122°38'1817.4
2014-Jul-17 05:33N 36°49' W 122°46'1717.5
2014-Jul-17 04:33N 37°05' W 122°55'1817.8
2014-Jul-17 03:33N 37°22' W 123°02'1514.8
2014-Jul-17 02:33N 37°37' W 122°59'1717.0
2014-Jul-17 01:33N 37°45' W 122°41'1414.1
2014-Jul-17 00:34N 37°49' W 122°24'3 3.4
2014-Jul-16 23:33N 37°49' W 122°19'0 0.0
2014-Jul-16 22:30N 37°49' W 122°19'0 0.0
2014-Jul-16 21:33N 37°49' W 122°19'0 0.0
2014-Jul-16 20:33N 37°49' W 122°19'0 0.0
2014-Jul-16 19:33N 37°49' W 122°19'0 0.0
2014-Jul-16 18:33N 37°49' W 122°19'0 0.0
2014-Jul-16 17:30N 37°49' W 122°19'0 0.0
2014-Jul-16 16:30N 37°49' W 122°19'0 0.0
2014-Jul-16 15:33N 37°49' W 122°19'0 0.0
2014-Jul-16 14:33N 37°49' W 122°19'0 0.0
2014-Jul-16 13:33N 37°49' W 122°19'0 0.0
2014-Jul-16 12:33N 37°49' W 122°19'0 0.0
2014-Jul-16 11:33N 37°49' W 122°19'0 0.0
2014-Jul-16 10:33N 37°49' W 122°19'0 0.0
2014-Jul-16 09:33N 37°49' W 122°19'0 0.0
2014-Jul-16 08:33N 37°49' W 122°19'0 0.0
2014-Jul-16 07:33N 37°49' W 122°19'0 0.0
2014-Jul-16 06:34N 37°49' W 122°19'0 0.0
2014-Jul-16 05:33N 37°49' W 122°19'0 0.0
2014-Jul-16 04:33N 37°49' W 122°19'0 0.0
2014-Jul-16 03:33N 37°49' W 122°19'0 0.0
2014-Jul-16 02:33N 37°49' W 122°19'0 0.0
2014-Jul-16 01:33N 37°49' W 122°19'0 0.0
2014-Jul-16 00:33N 37°49' W 122°19'0 0.0
2014-Jul-15 23:33N 37°49' W 122°19'0 0.0
2014-Jul-15 22:33N 37°49' W 122°19'0 0.0
2014-Jul-15 21:33N 37°49' W 122°19'9 9.5
2014-Jul-15 20:34N 37°48' W 122°31'1010.3
2014-Jul-15 19:34N 37°46' W 122°44'1615.5
2014-Jul-15 18:34N 37°53' W 123°01'1515.3
2014-Jul-15 17:34N 38°03' W 123°17'1515.4
2014-Jul-15 16:33N 38°11' W 123°33'1615.7
2014-Jul-15 15:33N 38°21' W 123°48'1715.9
2014-Jul-15 14:29N 38°33' W 124°04'1515.6
2014-Jul-15 13:33N 38°43' W 124°18'1815.6
2014-Jul-15 12:24N 38°60' W 124°26'1616.1
2014-Jul-15 11:26N 39°14' W 124°33'1816.1
2014-Jul-15 10:19N 39°31' W 124°40'3016.1
2014-Jul-15 08:27N 39°60' W 124°53'33816.1
2014-Jul-14 11:26N 45°37' W 124°20'1516.5
2014-Jul-14 10:33N 45°51' W 124°16'1616.4
2014-Jul-14 09:33N 46°07' W 124°13'1211.8
2014-Jul-14 08:33N 46°15' W 124°00'9 9.1
2014-Jul-14 07:33N 46°12' W 123°48'1211.8
2014-Jul-14 06:33N 46°16' W 123°32'1111.3
2014-Jul-14 05:33N 46°09' W 123°19'1313.0
2014-Jul-14 04:33N 46°08' W 123°00'1111.0
2014-Jul-14 03:32N 45°59' W 122°50'1211.9
2014-Jul-14 02:32N 45°47' W 122°47'9 8.6
2014-Jul-14 01:29N 45°38' W 122°45'0 0.0
2014-Jul-14 00:29N 45°38' W 122°45'0 0.0
2014-Jul-13 23:26N 45°38' W 122°45'0 0.0
2014-Jul-13 22:20N 45°38' W 122°45'0 0.0
2014-Jul-13 21:23N 45°38' W 122°45'0 0.0
2014-Jul-13 20:08N 45°38' W 122°45'0 0.0
2014-Jul-13 19:32N 45°38' W 122°45'0 0.0
2014-Jul-13 18:29N 45°38' W 122°45'0 0.0
2014-Jul-13 17:32N 45°38' W 122°45'0 0.0
2014-Jul-13 16:26N 45°38' W 122°45'0 0.0
2014-Jul-13 15:29N 45°38' W 122°45'0 0.0
2014-Jul-13 14:17N 45°38' W 122°45'0 0.2
2014-Jul-13 12:23N 45°39' W 122°45'7 8.1
2014-Jul-13 11:33N 45°45' W 122°46'1111.4
2014-Jul-13 10:33N 45°57' W 122°48'1110.5
2014-Jul-13 09:33N 46°06' W 122°56'1111.2
2014-Jul-13 08:33N 46°11' W 123°10'1010.4
2014-Jul-13 07:33N 46°10' W 123°25'9 9.1
2014-Jul-13 06:33N 46°15' W 123°36'1212.5
2014-Jul-13 05:33N 46°11' W 123°53'1313.5
2014-Jul-13 04:33N 46°12' W 124°12'10 9.5
2014-Jul-13 03:33N 46°19' W 124°22'8 8.4
2014-Jul-13 02:33N 46°26' W 124°28'1212.3
2014-Jul-13 01:33N 46°37' W 124°37'1313.3
2014-Jul-13 00:33N 46°49' W 124°45'1413.6
2014-Jul-12 23:33N 47°00' W 124°56'1313.3
2014-Jul-12 22:33N 47°12' W 125°04'1413.9
2014-Jul-12 21:33N 47°26' W 125°09'1413.6
2014-Jul-12 20:33N 47°39' W 125°13'1313.3
2014-Jul-12 19:33N 47°52' W 125°17'1313.0
2014-Jul-12 18:33N 48°05' W 125°13'1212.4
2014-Jul-12 17:33N 48°17' W 125°11'1312.9
2014-Jul-12 16:33N 48°29' W 125°04'1313.0
2014-Jul-12 15:33N 48°31' W 124°44'1515.5
2014-Jul-12 14:33N 48°25' W 124°23'1615.7
2014-Jul-12 13:33N 48°19' W 124°01'1515.1
2014-Jul-12 12:33N 48°16' W 123°39'1212.3
2014-Jul-12 11:33N 48°23' W 123°24'1212.2
2014-Jul-12 10:33N 48°33' W 123°13'1414.1
2014-Jul-12 09:33N 48°46' W 123°05'1413.9
2014-Jul-12 08:33N 48°58' W 123°15'1010.0
2014-Jul-12 07:33N 49°08' W 123°14'1211.7
2014-Jul-12 06:33N 49°10' W 122°56'1 1.3
2014-Jul-12 05:33N 49°11' W 122°55'0 0.0
2014-Jul-12 04:33N 49°11' W 122°55'0 0.0
2014-Jul-12 03:33N 49°11' W 122°55'0 0.0
2014-Jul-12 02:33N 49°11' W 122°55'0 0.0
2014-Jul-12 01:33N 49°11' W 122°55'0 0.0
2014-Jul-12 00:33N 49°11' W 122°55'0 0.0
2014-Jul-11 23:33N 49°11' W 122°55'0 0.0
2014-Jul-11 22:33N 49°11' W 122°55'0 0.0
2014-Jul-11 21:33N 49°11' W 122°55'0 0.0
2014-Jul-11 20:33N 49°11' W 122°55'0 0.0
2014-Jul-11 19:33N 49°11' W 122°55'0 0.0
2014-Jul-11 18:33N 49°11' W 122°55'0 0.0
2014-Jul-11 17:33N 49°11' W 122°55'0 0.0
2014-Jul-11 16:33N 49°11' W 122°55'0 0.0
2014-Jul-11 15:33N 49°11' W 122°55'0 0.0
2014-Jul-11 14:33N 49°11' W 122°55'0 0.0
2014-Jul-11 13:33N 49°11' W 122°55'0 0.0
2014-Jul-11 12:33N 49°11' W 122°55'0 0.0
2014-Jul-11 11:33N 49°11' W 122°55'0 0.0
2014-Jul-11 10:33N 49°11' W 122°55'0 0.0
2014-Jul-11 09:33N 49°11' W 122°55'0 0.0
2014-Jul-11 08:33N 49°11' W 122°55'0 0.0
2014-Jul-11 07:33N 49°11' W 122°55'0 0.0
2014-Jul-11 06:33N 49°11' W 122°55'0 0.0
2014-Jul-11 05:33N 49°11' W 122°55'0 0.0
2014-Jul-11 04:33N 49°11' W 122°55'0 0.0
2014-Jul-11 03:33N 49°11' W 122°55'0 0.0
2014-Jul-11 02:33N 49°11' W 122°55'0 0.0
2014-Jul-11 01:33N 49°11' W 122°55'0 0.0
2014-Jul-11 00:33N 49°11' W 122°55'2 2.3
2014-Jul-10 23:33N 49°09' W 122°57'  

Dump ship's entire track history